createdAt,value
2023-01-21T00:01:22.033Z,12.57
2023-01-21T00:03:48.232Z,13.33
2023-01-21T00:06:14.737Z,12.70
2023-01-21T00:08:41.071Z,13.50
2023-01-21T00:11:09.637Z,13.07
2023-01-21T00:13:36.013Z,12.60
2023-01-21T00:16:02.500Z,13.60
2023-01-21T00:18:30.131Z,13.53
2023-01-21T00:20:56.412Z,13.17
2023-01-21T00:23:22.651Z,13.43
2023-01-21T00:25:48.770Z,13.70
2023-01-21T00:28:15.739Z,13.97
2023-01-21T00:30:41.940Z,13.67
2023-01-21T00:33:08.161Z,12.07
2023-01-21T00:35:34.258Z,14.43
2023-01-21T00:38:00.389Z,14.87
2023-01-21T00:40:26.581Z,13.23
2023-01-21T00:42:52.692Z,13.53
2023-01-21T00:45:19.457Z,14.40
2023-01-21T00:47:46.439Z,14.33
2023-01-21T00:50:12.592Z,14.77
2023-01-21T00:52:38.690Z,14.50
2023-01-21T00:55:05.559Z,13.00
2023-01-21T00:57:32.060Z,13.77
2023-01-21T00:59:58.370Z,14.53
2023-01-21T01:02:25.161Z,14.03
2023-01-21T01:04:51.301Z,14.03
2023-01-21T01:07:17.409Z,13.57
2023-01-21T01:09:43.535Z,14.03
2023-01-21T01:12:09.660Z,13.10
2023-01-21T01:14:35.779Z,13.60
2023-01-21T01:17:02.199Z,13.87
2023-01-21T01:19:29.118Z,13.97
2023-01-21T01:21:55.217Z,14.13
2023-01-21T01:24:21.334Z,14.10
2023-01-21T01:26:47.469Z,13.13
2023-01-21T01:29:13.965Z,14.13
2023-01-21T01:31:40.155Z,13.37
2023-01-21T01:34:06.358Z,13.40
2023-01-21T01:36:33.099Z,13.33
2023-01-21T01:38:59.223Z,13.90
2023-01-21T01:41:26.817Z,13.60
2023-01-21T01:43:56.509Z,14.27
2023-01-21T01:46:23.558Z,15.17
2023-01-21T01:48:52.096Z,14.53
2023-01-21T01:51:21.015Z,15.50
2023-01-21T01:53:47.959Z,15.63
2023-01-21T01:56:14.801Z,16.20
2023-01-21T01:58:41.412Z,15.90
2023-01-21T02:01:07.590Z,17.33
2023-01-21T02:03:44.961Z,14.93
2023-01-21T02:06:11.642Z,16.13
2023-01-21T02:08:37.986Z,16.50
2023-01-21T02:11:10.674Z,15.83
2023-01-21T02:13:36.947Z,15.10
2023-01-21T02:16:17.039Z,16.27
2023-01-21T02:18:48.402Z,17.60
2023-01-21T02:21:47.828Z,15.50
2023-01-21T02:24:44.345Z,14.00
2023-01-21T02:27:36.734Z,15.67
2023-01-21T02:30:37.752Z,17.17
2023-01-21T02:33:28.108Z,18.00
2023-01-21T02:36:02.749Z,17.47
2023-01-21T02:38:31.818Z,16.17
2023-01-21T02:41:04.100Z,19.33
2023-01-21T02:43:36.158Z,19.03
2023-01-21T02:46:08.960Z,18.67
2023-01-21T02:48:39.743Z,17.10
2023-01-21T02:51:05.953Z,17.43
2023-01-21T02:53:34.209Z,18.87
2023-01-21T02:56:03.405Z,17.23
2023-01-21T02:58:32.571Z,19.63
2023-01-21T03:01:12.403Z,16.80
2023-01-21T03:03:52.996Z,15.97
2023-01-21T03:06:38.201Z,17.43
2023-01-21T03:09:10.515Z,15.33
2023-01-21T03:11:36.686Z,16.53
2023-01-21T03:14:27.540Z,16.20
2023-01-21T03:16:58.193Z,15.57
2023-01-21T03:19:32.652Z,15.87
2023-01-21T03:22:00.755Z,16.17
2023-01-21T03:24:27.207Z,16.10
2023-01-21T03:26:56.350Z,15.80
2023-01-21T03:29:26.341Z,16.27
2023-01-21T03:31:56.387Z,17.03
2023-01-21T03:34:25.240Z,16.33
2023-01-21T03:36:54.161Z,16.67
2023-01-21T03:39:26.675Z,15.03
2023-01-21T03:41:52.806Z,16.50
2023-01-21T03:44:19.072Z,16.83
2023-01-21T03:46:49.106Z,16.53
2023-01-21T03:49:18.337Z,16.07
2023-01-21T03:51:49.129Z,17.23
2023-01-21T03:54:15.274Z,15.23
2023-01-21T03:56:41.403Z,16.37
2023-01-21T03:59:08.275Z,15.90
2023-01-21T04:01:34.404Z,16.67
2023-01-21T04:04:00.511Z,15.13
2023-01-21T04:06:26.664Z,15.20
2023-01-21T04:08:53.434Z,16.80
2023-01-21T04:11:19.553Z,16.47
2023-01-21T04:13:45.661Z,15.67
2023-01-21T04:16:11.897Z,16.40
2023-01-21T04:18:38.010Z,17.60
2023-01-21T04:21:04.183Z,17.60
2023-01-21T04:23:30.386Z,17.27
2023-01-21T04:25:57.124Z,18.10
2023-01-21T04:28:23.414Z,17.23
2023-01-21T04:30:49.636Z,17.33
2023-01-21T04:33:16.739Z,16.23
2023-01-21T04:35:42.857Z,16.37
2023-01-21T04:38:08.949Z,17.33
2023-01-21T04:40:35.060Z,15.57
2023-01-21T04:43:01.800Z,17.23
2023-01-21T04:45:27.912Z,16.37
2023-01-21T04:47:54.012Z,16.60
2023-01-21T04:50:20.134Z,17.07
2023-01-21T04:52:46.242Z,17.40
2023-01-21T04:55:12.343Z,16.63
2023-01-21T04:57:38.514Z,17.00
2023-01-21T05:00:07.340Z,16.67
2023-01-21T05:02:33.676Z,17.17
2023-01-21T05:04:59.910Z,17.67
2023-01-21T05:07:26.202Z,17.43
2023-01-21T05:09:52.322Z,17.30
2023-01-21T05:12:18.557Z,17.03
2023-01-21T05:14:44.656Z,16.40
2023-01-21T05:17:11.408Z,17.10
2023-01-21T05:19:37.506Z,16.80
2023-01-21T05:22:03.658Z,18.50
2023-01-21T05:24:30.302Z,19.20
2023-01-21T05:26:56.425Z,18.57
2023-01-21T05:29:22.536Z,19.87
2023-01-21T05:31:48.903Z,16.57
2023-01-21T05:34:15.708Z,16.03
2023-01-21T05:36:41.812Z,18.20
2023-01-21T05:39:08.009Z,15.97
2023-01-21T05:41:34.112Z,17.17
2023-01-21T05:44:00.210Z,17.47
2023-01-21T05:46:26.359Z,17.50
2023-01-21T05:48:52.463Z,16.70
2023-01-21T05:51:19.278Z,16.33
2023-01-21T05:53:45.772Z,16.53
2023-01-21T05:56:12.140Z,17.07
2023-01-21T05:58:38.245Z,16.43
2023-01-21T06:01:04.682Z,16.27
2023-01-21T06:03:30.904Z,17.30
2023-01-21T06:05:57.071Z,17.57
2023-01-21T06:08:23.789Z,17.33
2023-01-21T06:10:49.939Z,17.40
2023-01-21T06:13:16.244Z,18.33
2023-01-21T06:15:42.635Z,18.70
2023-01-21T06:18:08.841Z,19.40
2023-01-21T06:20:35.964Z,20.03
2023-01-21T06:23:02.509Z,19.20
2023-01-21T06:25:29.988Z,19.47
2023-01-21T06:27:56.631Z,19.33
2023-01-21T06:30:23.330Z,20.23
2023-01-21T06:32:49.598Z,20.23
2023-01-21T06:35:16.137Z,20.70
2023-01-21T06:37:42.404Z,20.20
2023-01-21T06:40:09.994Z,20.00
2023-01-21T06:42:36.757Z,20.73
2023-01-21T06:45:03.236Z,20.77
2023-01-21T06:47:29.364Z,20.03
2023-01-21T06:49:55.485Z,22.13
2023-01-21T06:52:21.759Z,21.30
2023-01-21T06:54:47.878Z,21.87
2023-01-21T06:57:14.197Z,22.47
2023-01-21T06:59:40.936Z,22.13
2023-01-21T07:02:07.343Z,22.47
2023-01-21T07:04:33.464Z,23.13
2023-01-21T07:06:59.598Z,22.83
2023-01-21T07:09:25.813Z,22.30
2023-01-21T07:11:51.999Z,21.60
2023-01-21T07:14:18.131Z,19.93
2023-01-21T07:16:44.944Z,34.47
2023-01-21T07:19:11.235Z,23.47
2023-01-21T07:21:40.506Z,20.93
2023-01-21T07:24:07.142Z,19.13
2023-01-21T07:26:37.065Z,20.43
2023-01-21T07:29:03.790Z,20.03
2023-01-21T07:31:30.002Z,21.93
2023-01-21T07:33:56.795Z,21.90
2023-01-21T07:36:22.896Z,21.57
2023-01-21T07:38:49.007Z,21.70
2023-01-21T07:41:15.145Z,22.70
2023-01-21T07:43:41.276Z,23.73
2023-01-21T07:46:07.405Z,23.67
2023-01-21T07:48:33.499Z,24.27
2023-01-21T07:51:00.340Z,25.53
2023-01-21T07:53:26.821Z,25.97
2023-01-21T07:55:52.943Z,24.93
2023-01-21T07:58:19.045Z,23.90
2023-01-21T08:00:45.155Z,23.90
2023-01-21T08:03:11.282Z,24.77
2023-01-21T08:05:37.394Z,24.20
2023-01-21T08:08:04.577Z,23.07
2023-01-21T08:10:30.675Z,25.50
2023-01-21T08:12:56.789Z,23.87
2023-01-21T08:15:22.883Z,24.27
2023-01-21T08:17:49.796Z,25.10
2023-01-21T08:20:16.065Z,24.23
2023-01-21T08:22:42.188Z,24.37
2023-01-21T08:25:10.316Z,26.17
2023-01-21T08:27:36.423Z,26.83
2023-01-21T08:30:02.997Z,27.17
2023-01-21T08:32:29.781Z,26.00
2023-01-21T08:34:55.928Z,27.20
2023-01-21T08:37:22.123Z,29.13
2023-01-21T08:39:48.241Z,28.73
2023-01-21T08:42:14.980Z,26.83
2023-01-21T08:44:41.103Z,27.10
2023-01-21T08:47:07.220Z,27.07
2023-01-21T08:49:33.369Z,27.87
2023-01-21T08:51:59.768Z,28.27
2023-01-21T08:54:26.011Z,27.87
2023-01-21T08:56:52.177Z,28.17
2023-01-21T08:59:26.371Z,28.37
2023-01-21T09:01:52.525Z,29.00
2023-01-21T09:04:18.686Z,28.37
2023-01-21T09:06:44.806Z,28.63
2023-01-21T09:09:11.086Z,28.53
2023-01-21T09:11:37.219Z,28.60
2023-01-21T09:14:03.525Z,28.20
2023-01-21T09:16:31.139Z,28.90
2023-01-21T09:18:57.386Z,29.17
2023-01-21T09:21:23.537Z,29.73
2023-01-21T09:23:49.690Z,27.87
2023-01-21T09:26:16.925Z,27.73
2023-01-21T09:28:44.209Z,27.40
2023-01-21T09:31:12.304Z,27.77
2023-01-21T09:33:40.788Z,29.40
2023-01-21T09:36:09.903Z,27.63
2023-01-21T09:38:36.033Z,27.17
2023-01-21T09:41:10.937Z,26.83
2023-01-21T09:43:39.675Z,25.90
2023-01-21T09:46:11.739Z,26.67
2023-01-21T09:48:42.113Z,27.03
2023-01-21T09:51:15.371Z,27.30
2023-01-21T09:53:45.666Z,25.33
2023-01-21T09:56:17.481Z,24.97
2023-01-21T09:58:47.683Z,24.80
2023-01-21T10:01:19.226Z,21.20
2023-01-21T10:03:52.088Z,21.83
2023-01-21T10:06:25.073Z,22.47
2023-01-21T10:09:04.804Z,22.40
2023-01-21T10:11:39.917Z,19.60
2023-01-21T10:14:19.235Z,18.90
2023-01-21T10:16:53.237Z,18.17
2023-01-21T10:19:23.006Z,17.70
2023-01-21T10:21:53.180Z,17.07
2023-01-21T10:24:22.422Z,17.03
2023-01-21T10:26:50.811Z,16.97
2023-01-21T10:29:18.265Z,16.27
2023-01-21T10:31:49.380Z,16.13
2023-01-21T10:34:17.140Z,16.33
2023-01-21T10:36:52.187Z,16.80
2023-01-21T10:39:28.645Z,16.90
2023-01-21T10:42:03.823Z,16.93
2023-01-21T10:44:36.010Z,17.87
2023-01-21T10:47:07.574Z,17.47
2023-01-21T10:49:46.240Z,16.90
2023-01-21T10:52:17.432Z,18.57
2023-01-21T10:54:48.245Z,17.17
2023-01-21T10:57:24.316Z,18.90
2023-01-21T10:59:50.840Z,19.33
2023-01-21T11:02:21.704Z,17.43
2023-01-21T11:04:47.855Z,19.33
2023-01-21T11:07:17.550Z,18.57
2023-01-21T11:09:46.001Z,18.30
2023-01-21T11:12:16.096Z,17.67
2023-01-21T11:14:42.930Z,18.23
2023-01-21T11:17:09.673Z,17.90
2023-01-21T11:19:36.034Z,18.43
2023-01-21T11:22:03.727Z,17.70
2023-01-21T11:24:31.870Z,17.73
2023-01-21T11:26:59.809Z,18.20
2023-01-21T11:29:27.178Z,18.17
2023-01-21T11:32:01.762Z,18.93
2023-01-21T11:34:28.310Z,17.67
2023-01-21T11:36:56.154Z,18.47
2023-01-21T11:39:23.381Z,17.40
2023-01-21T11:41:52.021Z,17.57
2023-01-21T11:44:19.288Z,18.73
2023-01-21T11:46:45.461Z,18.33
2023-01-21T11:49:27.900Z,17.97
2023-01-21T11:52:14.754Z,18.70
2023-01-21T11:54:41.158Z,16.90
2023-01-21T11:57:20.427Z,17.63
2023-01-21T11:59:47.669Z,16.93
2023-01-21T12:02:17.490Z,17.23
2023-01-21T12:04:45.606Z,15.43
2023-01-21T12:07:17.834Z,16.87
2023-01-21T12:09:48.987Z,16.30
2023-01-21T12:12:26.418Z,16.37
2023-01-21T12:14:54.416Z,15.73
2023-01-21T12:17:31.387Z,15.17
2023-01-21T12:20:10.687Z,15.30
2023-01-21T12:22:45.810Z,15.83
2023-01-21T12:25:22.300Z,14.27
2023-01-21T12:28:02.617Z,15.40
2023-01-21T12:30:35.773Z,15.37
2023-01-21T12:33:04.802Z,15.00
2023-01-21T12:35:33.831Z,14.60
2023-01-21T12:38:02.633Z,14.10
2023-01-21T12:40:30.554Z,14.67
2023-01-21T12:43:01.872Z,15.10
2023-01-21T12:45:33.356Z,14.90
2023-01-21T12:48:03.039Z,14.00
2023-01-21T12:50:31.629Z,14.17
2023-01-21T12:53:05.066Z,15.00
2023-01-21T12:55:39.065Z,15.03
2023-01-21T12:58:11.404Z,15.00
2023-01-21T13:00:39.901Z,15.73
2023-01-21T13:03:16.051Z,15.57
2023-01-21T13:05:47.318Z,15.30
2023-01-21T13:08:31.109Z,16.20
2023-01-21T13:11:00.271Z,15.60
2023-01-21T13:13:30.035Z,16.93
2023-01-21T13:15:58.538Z,15.67
2023-01-21T13:18:28.795Z,14.87
2023-01-21T13:20:59.368Z,15.73
2023-01-21T13:23:30.028Z,16.87
2023-01-21T13:26:01.702Z,17.97
2023-01-21T13:28:32.554Z,17.00
2023-01-21T13:31:02.597Z,17.30
2023-01-21T13:33:35.347Z,15.60
2023-01-21T13:36:12.945Z,16.43
2023-01-21T13:38:43.794Z,17.73
2023-01-21T13:41:19.065Z,16.40
2023-01-21T13:43:54.824Z,17.00
2023-01-21T13:46:39.470Z,17.03
2023-01-21T13:49:17.046Z,15.37
2023-01-21T13:51:51.206Z,17.70
2023-01-21T13:54:38.049Z,17.33
2023-01-21T13:57:17.687Z,17.83
2023-01-21T13:59:48.348Z,16.80
2023-01-21T14:02:17.240Z,16.17
2023-01-21T14:04:46.666Z,17.67
2023-01-21T14:07:16.763Z,16.10
2023-01-21T14:09:47.265Z,15.93
2023-01-21T14:12:17.818Z,16.40
2023-01-21T14:14:59.982Z,14.40
2023-01-21T14:17:38.643Z,14.40
2023-01-21T14:20:16.848Z,15.63
2023-01-21T14:22:54.139Z,13.07
2023-01-21T14:25:31.230Z,13.53
2023-01-21T14:28:04.565Z,10.27
2023-01-21T14:30:38.851Z,11.30
2023-01-21T14:33:09.101Z,11.57
2023-01-21T14:35:41.451Z,10.17
2023-01-21T14:38:12.642Z,10.17
2023-01-21T14:40:45.000Z,11.30
2023-01-21T14:43:18.327Z,11.47
2023-01-21T14:45:53.167Z,10.87
2023-01-21T14:48:28.332Z,12.17
2023-01-21T14:50:57.436Z,11.63
2023-01-21T14:53:24.725Z,11.87
2023-01-21T14:56:16.954Z,11.70
2023-01-21T14:58:45.079Z,12.50
2023-01-21T15:01:24.532Z,13.40
2023-01-21T15:03:50.756Z,13.07
2023-01-21T15:13:44.929Z,13.17
2023-01-21T15:16:31.990Z,13.33
2023-01-21T15:19:18.115Z,13.83
2023-01-21T15:21:45.303Z,14.53
2023-01-21T15:24:23.714Z,14.93
2023-01-21T15:27:10.868Z,14.10
2023-01-21T15:29:40.268Z,15.43
2023-01-21T15:32:26.314Z,14.50
2023-01-21T15:34:55.053Z,14.03
2023-01-21T15:37:23.308Z,14.27
2023-01-21T15:39:51.497Z,13.80
2023-01-21T15:42:22.804Z,13.43
2023-01-21T15:45:20.569Z,11.97
2023-01-21T15:48:00.551Z,14.20
2023-01-21T15:50:30.371Z,14.33
2023-01-21T15:53:09.079Z,14.80
2023-01-21T15:55:49.488Z,13.03
2023-01-21T15:58:22.759Z,15.30
2023-01-21T16:00:53.459Z,14.13
2023-01-21T16:03:26.724Z,13.07
2023-01-21T16:05:58.757Z,13.27
2023-01-21T16:08:35.886Z,13.87
2023-01-21T16:11:12.589Z,12.80
2023-01-21T16:13:47.584Z,12.33
2023-01-21T16:16:22.570Z,13.63
2023-01-21T16:18:52.919Z,12.33
2023-01-21T16:21:22.078Z,12.03
2023-01-21T16:23:50.726Z,12.70
2023-01-21T16:26:24.128Z,12.53
2023-01-21T16:28:50.273Z,11.53
2023-01-21T16:31:16.559Z,12.53
2023-01-21T16:33:43.065Z,11.40
2023-01-21T16:36:13.366Z,11.83
2023-01-21T16:38:40.603Z,13.07
2023-01-21T16:41:23.481Z,12.83
2023-01-21T16:43:51.335Z,11.40
2023-01-21T16:46:19.131Z,12.20
2023-01-21T16:48:48.884Z,12.13
2023-01-21T16:51:17.761Z,12.07
2023-01-21T16:53:43.953Z,12.20
2023-01-21T16:56:24.231Z,12.57
2023-01-21T16:58:50.324Z,11.97
2023-01-21T17:01:17.392Z,12.03
2023-01-21T17:03:43.875Z,11.77
2023-01-21T17:06:13.796Z,12.83
2023-01-21T17:08:40.842Z,12.70
2023-01-21T17:11:09.210Z,11.73
2023-01-21T17:17:52.879Z,12.23
2023-01-21T17:20:36.483Z,11.23
2023-01-21T17:34:27.014Z,9.57
2023-01-21T17:36:56.258Z,9.83
2023-01-21T17:39:59.784Z,11.03
2023-01-21T17:42:30.181Z,10.80
2023-01-21T17:44:57.336Z,10.57
2023-01-21T17:47:26.251Z,10.87
2023-01-21T17:49:58.019Z,11.03
2023-01-21T17:52:24.607Z,9.83
2023-01-21T17:54:50.685Z,10.17
2023-01-21T17:57:33.057Z,11.27
2023-01-21T17:59:59.157Z,10.53
2023-01-21T18:02:25.387Z,10.27
2023-01-21T18:04:51.528Z,10.37
2023-01-21T18:07:21.493Z,10.73
2023-01-21T18:09:47.626Z,10.33
2023-01-21T18:12:13.734Z,10.30
2023-01-21T18:14:40.969Z,10.07
2023-01-21T18:17:10.551Z,10.53
2023-01-21T18:19:37.335Z,10.97
2023-01-21T18:22:05.028Z,11.10
2023-01-21T18:24:31.994Z,11.33
2023-01-21T18:26:59.722Z,10.57
2023-01-21T18:29:29.442Z,11.03
2023-01-21T18:31:55.577Z,11.97
2023-01-21T18:34:21.732Z,11.33
2023-01-21T18:36:48.101Z,10.63
2023-01-21T18:39:16.505Z,11.37
2023-01-21T18:41:43.755Z,11.73
2023-01-21T18:44:10.104Z,11.93
2023-01-21T18:46:40.677Z,11.20
2023-01-21T18:49:14.343Z,10.80
2023-01-21T18:51:40.539Z,11.80
2023-01-21T18:54:06.926Z,10.67
2023-01-21T18:56:33.153Z,10.87
2023-01-21T18:59:00.416Z,11.20
2023-01-21T19:01:26.650Z,11.80
2023-01-21T19:03:54.029Z,11.37
2023-01-21T19:06:20.632Z,11.87
2023-01-21T19:08:47.810Z,10.83
2023-01-21T19:11:14.040Z,11.47
2023-01-21T19:13:40.162Z,11.40
2023-01-21T19:16:13.610Z,11.40
2023-01-21T19:18:39.750Z,12.13
2023-01-21T19:21:07.388Z,11.40
2023-01-21T19:23:34.407Z,11.73
2023-01-21T19:26:00.629Z,11.47
2023-01-21T19:28:26.907Z,11.53
2023-01-21T19:30:54.469Z,11.20
2023-01-21T19:33:21.966Z,12.07
2023-01-21T19:35:48.521Z,12.87
2023-01-21T19:38:16.128Z,12.03
2023-01-21T19:40:42.390Z,11.97
2023-01-21T19:43:10.108Z,12.20
2023-01-21T19:45:36.230Z,12.87
2023-01-21T19:48:02.379Z,12.90
2023-01-21T19:50:29.421Z,12.00
2023-01-21T19:52:55.544Z,12.73
2023-01-21T19:55:22.917Z,12.50
2023-01-21T19:57:54.429Z,12.83
2023-01-21T20:00:23.779Z,12.30
2023-01-21T20:02:50.044Z,13.30
2023-01-21T20:05:16.552Z,13.77
2023-01-21T20:07:43.537Z,13.70
2023-01-21T20:10:13.067Z,13.70
2023-01-21T20:12:39.828Z,13.23
2023-01-21T20:15:07.168Z,13.20
2023-01-21T20:17:33.539Z,14.07
2023-01-21T20:19:59.684Z,13.53
2023-01-21T20:22:26.045Z,14.30
2023-01-21T20:24:52.987Z,14.10
2023-01-21T20:27:20.580Z,14.83
2023-01-21T20:29:55.588Z,15.67
2023-01-21T20:32:28.568Z,14.10
2023-01-21T20:34:54.769Z,15.57
2023-01-21T20:37:20.920Z,16.13
2023-01-21T20:39:47.135Z,16.17
2023-01-21T20:42:13.936Z,16.20
2023-01-21T20:44:40.036Z,16.03
2023-01-21T20:47:06.190Z,17.27
2023-01-21T20:49:32.305Z,16.83
2023-01-21T20:51:58.423Z,17.27
2023-01-21T20:54:25.896Z,17.80
2023-01-21T20:56:52.013Z,17.37
2023-01-21T20:59:20.954Z,18.10
2023-01-21T21:01:47.446Z,19.23
2023-01-21T21:04:13.865Z,19.80
2023-01-21T21:06:39.995Z,18.43
2023-01-21T21:09:06.107Z,18.00
2023-01-21T21:11:32.237Z,19.23
2023-01-21T21:14:00.915Z,18.50
2023-01-21T21:16:30.851Z,19.00
2023-01-21T21:18:57.390Z,20.77
2023-01-21T21:21:24.257Z,20.50
2023-01-21T21:23:50.730Z,20.17
2023-01-21T21:26:21.257Z,21.77
2023-01-21T21:28:47.843Z,20.57
2023-01-21T21:31:15.308Z,20.13
2023-01-21T21:33:42.530Z,20.90
2023-01-21T21:36:13.181Z,21.03
2023-01-21T21:38:39.274Z,20.90
2023-01-21T21:41:25.501Z,20.50
2023-01-21T21:43:51.355Z,20.90
2023-01-21T21:46:35.694Z,20.50
2023-01-21T21:49:02.443Z,20.50
2023-01-21T21:51:30.985Z,20.47
2023-01-21T21:53:57.135Z,22.03
2023-01-21T21:56:23.831Z,20.30
2023-01-21T21:58:50.670Z,19.90
2023-01-21T22:01:18.849Z,21.13
2023-01-21T22:03:45.147Z,21.43
2023-01-21T22:06:12.350Z,21.13
2023-01-21T22:08:40.338Z,19.90
2023-01-21T22:11:08.649Z,21.00
2023-01-21T22:13:36.727Z,19.87
2023-01-21T22:16:03.817Z,20.27
2023-01-21T22:18:30.521Z,19.73
2023-01-21T22:20:59.299Z,21.33
2023-01-21T22:23:26.086Z,19.77
2023-01-21T22:25:52.952Z,20.30
2023-01-21T22:28:19.421Z,19.77
2023-01-21T22:30:45.817Z,19.10
2023-01-21T22:33:12.009Z,18.47
2023-01-21T22:35:39.342Z,18.67
2023-01-21T22:38:05.804Z,17.40
2023-01-21T22:40:35.764Z,18.50
2023-01-21T22:43:01.895Z,18.60
2023-01-21T22:45:28.012Z,17.43
2023-01-21T22:47:54.111Z,17.40
2023-01-21T22:50:20.221Z,16.70
2023-01-21T22:52:46.333Z,17.17
2023-01-21T22:55:12.426Z,16.67
2023-01-21T22:57:39.656Z,16.67
2023-01-21T23:00:09.796Z,16.87
2023-01-21T23:02:35.922Z,15.57
2023-01-21T23:05:02.105Z,16.30
2023-01-21T23:07:28.262Z,15.40
2023-01-21T23:09:54.500Z,17.63
2023-01-21T23:12:20.641Z,15.87
2023-01-21T23:14:47.740Z,16.63
2023-01-21T23:17:15.843Z,16.90
2023-01-21T23:19:42.365Z,15.47
2023-01-21T23:22:08.641Z,15.67
2023-01-21T23:24:34.750Z,16.83
2023-01-21T23:27:00.933Z,16.23
2023-01-21T23:29:27.059Z,15.80
2023-01-21T23:31:53.854Z,16.63
2023-01-21T23:34:22.042Z,15.87
2023-01-21T23:36:48.353Z,15.60
2023-01-21T23:39:14.458Z,16.07
2023-01-21T23:41:40.569Z,17.63
2023-01-21T23:44:06.673Z,17.13
2023-01-21T23:46:33.045Z,17.57
2023-01-21T23:48:59.825Z,18.67
2023-01-21T23:51:25.921Z,18.27
2023-01-21T23:53:52.054Z,17.30
2023-01-21T23:56:20.372Z,16.67
2023-01-21T23:58:46.713Z,17.13
